Time;durP1;ratioP1;P1;durP2;ratioP2;P2;SDS_P1;SDS_P2;PMS_P1;PMS_P2;Temp;Humidity;BMP_temperature;BMP_pressure;BME280_temperature;BME280_humidity;BME280_pressure;Samples;Min_cycle;Max_cycle;Signal;HPM_P1;HPM_P2
2023/04/09 00:01:53;;;;;;;2.53;2.33;;;7.10;95.30;;;;;;5052860;28;20176;-73
2023/04/09 00:04:21;;;;;;;2.07;1.73;;;7.20;95.20;;;;;;5052280;28;20190;-73
2023/04/09 00:06:46;;;;;;;2.13;2.03;;;7.20;95.00;;;;;;5055569;28;20187;-72
2023/04/09 00:09:12;;;;;;;2.17;2.07;;;7.20;94.70;;;;;;5049069;28;20174;-72
2023/04/09 00:11:38;;;;;;;2.27;2.17;;;7.20;94.70;;;;;;5049451;28;20314;-72
2023/04/09 00:14:03;;;;;;;3.00;2.30;;;7.10;94.90;;;;;;5048987;28;20183;-72
2023/04/09 00:16:29;;;;;;;3.40;3.10;;;7.20;94.90;;;;;;5053036;28;20180;-73
2023/04/09 00:18:55;;;;;;;5.50;3.03;;;7.30;94.60;;;;;;5053290;28;20182;-75
2023/04/09 00:21:20;;;;;;;3.47;3.20;;;7.30;94.70;;;;;;5058125;28;20192;-72
2023/04/09 00:23:46;;;;;;;3.30;3.00;;;7.20;95.20;;;;;;5052512;28;20189;-74
2023/04/09 00:26:12;;;;;;;3.53;3.23;;;7.20;95.20;;;;;;5051653;28;20183;-71
2023/04/09 00:28:37;;;;;;;2.50;2.40;;;7.20;95.50;;;;;;5049526;28;20273;-72
2023/04/09 00:31:03;;;;;;;2.40;2.30;;;7.20;95.20;;;;;;5052085;28;20210;-72
2023/04/09 00:33:29;;;;;;;4.70;3.07;;;7.30;94.90;;;;;;5052854;28;20262;-74
2023/04/09 00:35:55;;;;;;;3.10;2.90;;;7.30;94.90;;;;;;5054010;28;20184;-75
2023/04/09 00:38:20;;;;;;;2.57;2.37;;;7.30;95.10;;;;;;5054110;28;20269;-72
2023/04/09 00:40:50;;;;;;;3.40;2.97;;;7.40;95.00;;;;;;5055901;28;20179;-72
2023/04/09 00:43:16;;;;;;;2.33;2.17;;;7.40;94.90;;;;;;5048760;28;20567;-72
2023/04/09 00:45:43;;;;;;;3.10;2.50;;;7.40;94.90;;;;;;5052830;28;20188;-72
2023/04/09 00:48:09;;;;;;;2.17;2.03;;;7.40;94.70;;;;;;5059950;28;20209;-74
2023/04/09 00:50:35;;;;;;;2.23;2.10;;;7.40;94.50;;;;;;5055103;28;20206;-72
2023/04/09 00:53:01;;;;;;;2.33;2.23;;;7.40;94.30;;;;;;5052283;28;20176;-72
2023/04/09 00:55:27;;;;;;;2.43;2.23;;;7.50;94.40;;;;;;5052878;28;20183;-73
2023/04/09 00:57:53;;;;;;;2.67;2.47;;;7.40;94.40;;;;;;5055125;28;20175;-72
2023/04/09 01:00:19;;;;;;;2.17;2.07;;;7.40;94.60;;;;;;5057439;28;20207;-73
2023/04/09 01:02:45;;;;;;;2.30;2.20;;;7.40;94.30;;;;;;5054422;28;20679;-73
2023/04/09 01:05:12;;;;;;;2.37;2.17;;;7.40;94.50;;;;;;5054344;28;20251;-73
2023/04/09 01:07:53;;;;;;;2.37;2.27;;;7.40;94.40;;;;;;5055580;28;20182;-73
2023/04/09 01:10:23;;;;;;;2.10;2.00;;;7.40;94.10;;;;;;5055743;28;20322;-72
2023/04/09 01:12:58;;;;;;;2.10;2.00;;;7.30;94.00;;;;;;5052944;28;20184;-73
2023/04/09 01:15:32;;;;;;;2.17;2.07;;;7.30;94.20;;;;;;5053653;28;20225;-72
2023/04/09 01:18:06;;;;;;;2.30;2.07;;;7.30;94.20;;;;;;5052805;28;20175;-73
2023/04/09 01:20:42;;;;;;;2.07;1.97;;;7.20;94.50;;;;;;5050434;28;20211;-72
2023/04/09 01:23:29;;;;;;;2.07;1.70;;;7.20;94.70;;;;;;5050763;28;20266;-73
2023/04/09 01:26:15;;;;;;;2.37;2.13;;;7.20;94.70;;;;;;5056073;28;20199;-73
2023/04/09 01:28:45;;;;;;;1.87;1.73;;;7.20;94.50;;;;;;5054013;28;20175;-73
2023/04/09 01:31:14;;;;;;;2.13;2.03;;;7.20;94.50;;;;;;5051075;28;20673;-72
2023/04/09 01:33:40;;;;;;;2.93;2.73;;;7.20;94.50;;;;;;5050668;28;20184;-72
2023/04/09 01:36:07;;;;;;;2.50;2.27;;;7.20;95.10;;;;;;5056035;28;20251;-72
2023/04/09 01:38:35;;;;;;;2.90;2.63;;;7.10;95.70;;;;;;5057064;28;20183;-73
2023/04/09 01:41:03;;;;;;;2.90;2.70;;;6.90;96.50;;;;;;5060851;28;20183;-72
2023/04/09 01:43:30;;;;;;;3.30;3.03;;;7.00;96.30;;;;;;5060538;28;20257;-73
2023/04/09 01:45:58;;;;;;;3.40;3.00;;;7.00;96.20;;;;;;5061567;28;20180;-72
2023/04/09 01:48:24;;;;;;;2.97;2.77;;;6.80;96.80;;;;;;5051140;28;20207;-74
2023/04/09 01:50:50;;;;;;;3.90;3.03;;;6.80;97.20;;;;;;5055437;28;20639;-72
2023/04/09 01:53:16;;;;;;;4.07;3.30;;;6.80;97.10;;;;;;5056518;28;20650;-73
2023/04/09 01:55:42;;;;;;;2.97;2.77;;;6.90;96.50;;;;;;5061387;28;20183;-73
2023/04/09 01:58:08;;;;;;;3.43;3.10;;;7.10;95.80;;;;;;5059504;28;20632;-73
2023/04/09 02:00:38;;;;;;;2.50;2.40;;;7.10;95.30;;;;;;5056534;28;20195;-73
2023/04/09 02:03:30;;;;;;;4.83;3.03;;;7.20;95.20;;;;;;5055336;28;20266;-72
2023/04/09 02:06:14;;;;;;;3.27;2.40;;;7.20;95.10;;;;;;5053196;28;20195;-73
2023/04/09 02:08:45;;;;;;;2.57;2.37;;;7.20;94.70;;;;;;5069731;28;20179;-73
2023/04/09 02:11:12;;;;;;;3.13;2.90;;;7.00;95.80;;;;;;5056283;28;20645;-73
2023/04/09 02:13:40;;;;;;;3.07;2.87;;;6.80;96.40;;;;;;5057590;28;20180;-74
2023/04/09 02:16:07;;;;;;;2.57;2.37;;;6.70;97.10;;;;;;5055353;28;20186;-73
2023/04/09 02:18:33;;;;;;;2.77;2.57;;;6.60;97.60;;;;;;5054031;28;20211;-73
2023/04/09 02:20:59;;;;;;;3.47;2.90;;;6.50;97.80;;;;;;5054871;28;20182;-73
2023/04/09 02:23:31;;;;;;;2.20;2.17;;;6.50;97.70;;;;;;5052576;28;20225;-73
2023/04/09 02:25:56;;;;;;;3.80;2.43;;;6.60;97.70;;;;;;5060322;28;20187;-73
2023/04/09 02:28:22;;;;;;;1.80;1.70;;;6.70;97.00;;;;;;5053018;28;20759;-74
2023/04/09 02:30:48;;;;;;;2.30;2.23;;;6.70;96.60;;;;;;5052657;28;20211;-73
2023/04/09 02:33:13;;;;;;;3.43;2.10;;;6.80;96.40;;;;;;5055336;28;20245;-73
2023/04/09 02:35:39;;;;;;;2.93;2.07;;;6.90;96.10;;;;;;5056260;28;20724;-73
2023/04/09 02:38:05;;;;;;;2.10;2.00;;;6.80;96.10;;;;;;5055996;28;20229;-73
2023/04/09 02:40:30;;;;;;;2.20;2.03;;;6.60;96.60;;;;;;5056817;28;20182;-73
2023/04/09 02:42:56;;;;;;;2.53;2.37;;;6.60;96.90;;;;;;5056033;28;20274;-73
2023/04/09 02:45:22;;;;;;;2.83;2.63;;;6.70;96.50;;;;;;5055091;28;20207;-73
2023/04/09 02:47:47;;;;;;;2.27;2.07;;;6.70;96.20;;;;;;5053607;28;20172;-73
2023/04/09 02:50:13;;;;;;;2.03;1.93;;;6.80;96.10;;;;;;5056566;28;20282;-73
2023/04/09 02:52:39;;;;;;;3.53;2.53;;;6.70;96.10;;;;;;5053057;28;20251;-73
2023/04/09 02:55:05;;;;;;;2.30;2.10;;;6.70;96.00;;;;;;5058028;28;20180;-73
2023/04/09 02:57:32;;;;;;;2.17;2.00;;;6.70;96.00;;;;;;5051307;28;20660;-73
2023/04/09 02:59:58;;;;;;;3.07;2.37;;;6.80;95.80;;;;;;5054371;28;20175;-73
2023/04/09 03:02:23;;;;;;;2.93;1.80;;;6.80;95.50;;;;;;5054960;28;20234;-73
2023/04/09 03:04:49;;;;;;;1.87;1.77;;;6.80;95.50;;;;;;5053709;28;20191;-73
2023/04/09 03:07:15;;;;;;;2.33;2.23;;;6.70;95.10;;;;;;5055365;28;20258;-73
2023/04/09 03:09:40;;;;;;;2.60;2.40;;;6.80;95.20;;;;;;5052248;28;20183;-73
2023/04/09 03:12:06;;;;;;;2.33;2.20;;;6.70;95.20;;;;;;5053782;28;20294;-73
2023/04/09 03:14:32;;;;;;;1.73;1.63;;;6.70;95.20;;;;;;5053539;28;20609;-73
2023/04/09 03:16:57;;;;;;;2.47;2.20;;;6.70;95.20;;;;;;5050678;28;20175;-73
2023/04/09 03:19:23;;;;;;;2.77;2.07;;;6.70;95.20;;;;;;5051585;28;20172;-73
2023/04/09 03:21:50;;;;;;;1.93;1.83;;;6.70;95.30;;;;;;5057943;28;20279;-73
2023/04/09 03:24:16;;;;;;;2.87;2.67;;;6.70;95.30;;;;;;5058581;28;20175;-73
2023/04/09 03:26:41;;;;;;;2.17;2.00;;;6.70;95.50;;;;;;5053750;28;20578;-72
2023/04/09 03:29:07;;;;;;;3.97;2.90;;;6.70;95.40;;;;;;5047090;28;20172;-73
2023/04/09 03:31:33;;;;;;;2.13;1.97;;;6.60;95.40;;;;;;5052462;28;20711;-73
2023/04/09 03:33:59;;;;;;;1.97;1.90;;;6.60;95.30;;;;;;5055535;28;20179;-73
2023/04/09 03:36:26;;;;;;;2.53;2.33;;;6.60;95.40;;;;;;5052958;28;20278;-74
2023/04/09 03:38:52;;;;;;;2.17;1.97;;;6.50;95.50;;;;;;5058335;28;20171;-74
2023/04/09 03:41:18;;;;;;;2.40;2.20;;;6.50;95.50;;;;;;5056804;28;20191;-69
2023/04/09 03:43:44;;;;;;;2.37;2.20;;;6.50;95.40;;;;;;5051555;28;20264;-74
2023/04/09 03:46:14;;;;;;;2.43;2.20;;;6.50;95.50;;;;;;5053657;28;20179;-73
2023/04/09 03:48:40;;;;;;;2.97;2.77;;;6.50;95.40;;;;;;5053092;28;20184;-73
2023/04/09 03:51:12;;;;;;;4.50;2.13;;;6.50;95.40;;;;;;5053488;28;20230;-73
2023/04/09 03:53:37;;;;;;;2.40;1.97;;;6.40;95.50;;;;;;5086756;28;20213;-73
2023/04/09 03:56:03;;;;;;;2.30;2.10;;;6.30;96.00;;;;;;5055143;28;20171;-73
2023/04/09 03:58:29;;;;;;;2.53;2.40;;;6.30;95.90;;;;;;5048076;28;20275;-73
2023/04/09 04:00:55;;;;;;;3.33;2.70;;;6.30;96.10;;;;;;5055763;28;20179;-73
2023/04/09 04:03:20;;;;;;;2.43;2.27;;;6.30;96.20;;;;;;5052694;28;20183;-73
2023/04/09 04:05:46;;;;;;;3.10;2.63;;;6.30;96.40;;;;;;5054422;28;20183;-73
2023/04/09 04:08:12;;;;;;;2.20;2.10;;;6.30;96.50;;;;;;5051755;28;20207;-72
2023/04/09 04:10:37;;;;;;;2.63;2.50;;;6.20;96.60;;;;;;5051099;28;20750;-72
2023/04/09 04:13:05;;;;;;;9.80;3.30;;;6.20;96.60;;;;;;5056230;28;20203;-73
2023/04/09 04:15:31;;;;;;;4.80;2.97;;;6.20;96.50;;;;;;5053148;28;20211;-72
2023/04/09 04:17:57;;;;;;;6.40;3.10;;;6.20;96.60;;;;;;5049603;28;20214;-73
2023/04/09 04:20:22;;;;;;;3.70;3.27;;;6.20;96.80;;;;;;5054303;28;20574;-73
2023/04/09 04:22:48;;;;;;;2.73;2.40;;;6.30;96.60;;;;;;5051655;28;20735;-73
2023/04/09 04:25:14;;;;;;;2.73;2.60;;;6.20;96.60;;;;;;5053490;28;20568;-73
2023/04/09 04:27:42;;;;;;;2.97;2.77;;;6.20;96.70;;;;;;5045655;28;20190;-73
2023/04/09 04:30:08;;;;;;;2.73;2.50;;;6.30;96.70;;;;;;5048462;28;20178;-73
2023/04/09 04:32:34;;;;;;;2.80;2.63;;;6.30;96.80;;;;;;5045077;28;20185;-73
2023/04/09 04:35:00;;;;;;;3.10;2.43;;;6.30;96.60;;;;;;5048021;28;20618;-74
2023/04/09 04:37:25;;;;;;;4.93;2.30;;;6.30;96.60;;;;;;5049766;28;20207;-73
2023/04/09 04:39:51;;;;;;;3.37;3.10;;;6.40;96.60;;;;;;5047589;28;20217;-73
2023/04/09 04:42:17;;;;;;;6.20;3.20;;;6.50;96.30;;;;;;5052748;28;20188;-73
2023/04/09 04:44:43;;;;;;;3.07;2.67;;;6.50;96.10;;;;;;5053635;28;20294;-73
2023/04/09 04:47:09;;;;;;;3.13;2.93;;;6.50;96.50;;;;;;5055409;28;20186;-74
2023/04/09 04:49:34;;;;;;;2.77;2.57;;;6.60;96.30;;;;;;5056079;28;20649;-74
2023/04/09 04:52:00;;;;;;;2.60;2.40;;;6.60;96.40;;;;;;5049222;28;20689;-74
2023/04/09 04:54:26;;;;;;;2.97;2.77;;;6.70;96.40;;;;;;5055343;28;20262;-73
2023/04/09 04:56:52;;;;;;;2.27;2.17;;;6.80;96.30;;;;;;5052914;28;20192;-73
2023/04/09 04:59:17;;;;;;;2.70;2.50;;;6.90;96.00;;;;;;5053628;28;20214;-73
2023/04/09 05:01:43;;;;;;;3.37;3.07;;;7.00;95.60;;;;;;5052138;28;20183;-73
2023/04/09 05:04:09;;;;;;;2.93;2.73;;;7.10;95.50;;;;;;5054004;28;20175;-74
2023/04/09 05:06:35;;;;;;;3.03;2.70;;;7.20;95.30;;;;;;5055241;28;20171;-73
2023/04/09 05:09:00;;;;;;;3.30;2.90;;;7.30;94.80;;;;;;5057591;28;20657;-73
2023/04/09 05:11:26;;;;;;;3.27;3.00;;;7.50;94.60;;;;;;5055095;28;20604;-74
2023/04/09 05:13:52;;;;;;;3.17;2.97;;;7.60;94.20;;;;;;5056380;28;20613;-74
2023/04/09 05:16:19;;;;;;;4.03;3.03;;;7.70;93.60;;;;;;5056947;28;20199;-73
2023/04/09 05:18:45;;;;;;;4.40;2.83;;;7.80;93.40;;;;;;5058259;28;20202;-74
2023/04/09 05:21:11;;;;;;;3.57;3.27;;;7.90;93.10;;;;;;5057834;28;20651;-73
2023/04/09 05:23:37;;;;;;;3.77;3.47;;;7.90;93.10;;;;;;5053264;28;20179;-73
2023/04/09 05:26:02;;;;;;;6.47;3.30;;;8.00;92.70;;;;;;5054788;28;20206;-72
2023/04/09 05:28:28;;;;;;;4.33;3.60;;;8.10;92.60;;;;;;5055057;28;20186;-73
2023/04/09 05:30:54;;;;;;;4.33;3.50;;;8.10;92.50;;;;;;5054964;28;20211;-73
2023/04/09 05:33:19;;;;;;;4.23;3.67;;;8.10;92.70;;;;;;5054586;28;20187;-73
2023/04/09 05:35:45;;;;;;;4.93;3.63;;;8.10;92.70;;;;;;5055852;28;20233;-73
2023/04/09 05:38:12;;;;;;;5.17;3.90;;;8.10;92.80;;;;;;5061878;28;20206;-73
2023/04/09 05:40:38;;;;;;;3.97;3.57;;;8.20;92.40;;;;;;5057688;28;20263;-73
2023/04/09 05:43:04;;;;;;;3.40;3.10;;;8.20;92.50;;;;;;5059766;28;20183;-74
2023/04/09 05:45:30;;;;;;;4.20;3.73;;;8.30;92.50;;;;;;5056108;28;20194;-73
2023/04/09 05:47:55;;;;;;;7.03;3.00;;;8.40;92.10;;;;;;5057073;28;20175;-74
2023/04/09 05:50:21;;;;;;;3.20;2.93;;;8.50;91.80;;;;;;5051223;28;20211;-73
2023/04/09 05:52:47;;;;;;;4.23;3.90;;;8.50;91.50;;;;;;5058219;28;20265;-74
2023/04/09 05:55:13;;;;;;;5.27;3.27;;;8.60;90.90;;;;;;5057852;28;20232;-74
2023/04/09 05:57:39;;;;;;;3.90;3.60;;;8.70;90.50;;;;;;5051832;28;20176;-75
2023/04/09 06:00:05;;;;;;;4.73;3.60;;;8.80;90.20;;;;;;5053424;28;20210;-74
2023/04/09 06:02:31;;;;;;;5.20;3.23;;;8.90;89.80;;;;;;5055775;28;20257;-75
2023/04/09 06:04:56;;;;;;;2.93;2.63;;;8.90;89.70;;;;;;5056914;28;20270;-73
2023/04/09 06:07:22;;;;;;;3.53;2.93;;;9.00;89.40;;;;;;5059479;28;20187;-73
2023/04/09 06:09:48;;;;;;;4.43;3.07;;;9.10;89.10;;;;;;5057444;28;20171;-73
2023/04/09 06:12:14;;;;;;;4.03;3.60;;;9.10;88.90;;;;;;5050124;28;20212;-73
2023/04/09 06:14:40;;;;;;;5.40;3.70;;;9.20;88.90;;;;;;5054491;28;20210;-73
2023/04/09 06:17:06;;;;;;;4.27;3.87;;;9.40;88.40;;;;;;5052810;28;20250;-73
2023/04/09 06:19:31;;;;;;;4.80;3.77;;;9.50;87.60;;;;;;5055738;28;20172;-73
2023/04/09 06:21:57;;;;;;;3.67;3.40;;;9.60;86.70;;;;;;5053820;28;20188;-72
2023/04/09 06:24:23;;;;;;;6.87;4.50;;;9.60;86.30;;;;;;5058526;28;20183;-73
2023/04/09 06:26:48;;;;;;;4.37;3.70;;;9.70;86.50;;;;;;5056481;28;20175;-73
2023/04/09 06:29:14;;;;;;;6.27;4.10;;;9.70;85.60;;;;;;5050653;28;20168;-73
2023/04/09 06:31:40;;;;;;;4.03;3.63;;;9.70;85.60;;;;;;5056265;28;20216;-73
2023/04/09 06:34:06;;;;;;;8.60;3.72;;;9.70;85.00;;;;;;5059227;28;20574;-73
2023/04/09 06:36:32;;;;;;;7.15;3.70;;;9.80;85.50;;;;;;5056909;28;20176;-74
2023/04/09 06:38:58;;;;;;;5.10;3.47;;;9.90;84.70;;;;;;5053921;28;20171;-74
2023/04/09 06:41:25;;;;;;;3.53;3.23;;;10.00;85.10;;;;;;5064369;28;20192;-73
2023/04/09 06:43:51;;;;;;;3.72;3.45;;;10.20;85.30;;;;;;5055374;28;20187;-72
2023/04/09 06:46:18;;;;;;;4.07;3.72;;;10.30;84.00;;;;;;5047672;28;20179;-75
2023/04/09 06:48:45;;;;;;;4.30;3.78;;;10.30;83.90;;;;;;5048572;28;20180;-75
2023/04/09 06:51:11;;;;;;;3.78;3.42;;;10.50;84.30;;;;;;5055185;28;20214;-74
2023/04/09 06:53:38;;;;;;;3.20;3.00;;;10.70;84.20;;;;;;5057122;28;20566;-76
2023/04/09 06:56:04;;;;;;;5.32;3.78;;;10.80;83.60;;;;;;5057146;28;20175;-75
2023/04/09 06:58:30;;;;;;;3.10;2.90;;;11.00;82.00;;;;;;5053683;28;20931;-76
2023/04/09 07:00:55;;;;;;;6.57;3.97;;;11.00;81.80;;;;;;5051856;28;20244;-76
2023/04/09 07:03:21;;;;;;;3.95;3.33;;;11.00;80.30;;;;;;5053129;28;20192;-77
2023/04/09 07:05:47;;;;;;;3.58;3.15;;;10.90;79.20;;;;;;5056275;28;20176;-76
2023/04/09 07:08:13;;;;;;;3.85;3.17;;;10.80;79.30;;;;;;5054673;28;20290;-74
2023/04/09 07:10:40;;;;;;;3.40;3.13;;;10.60;79.50;;;;;;5051507;28;20207;-76
2023/04/09 07:13:06;;;;;;;3.92;3.55;;;10.70;80.60;;;;;;5053546;28;20626;-75
2023/04/09 07:15:31;;;;;;;4.00;3.63;;;10.80;80.90;;;;;;5085969;28;20232;-74
2023/04/09 07:17:57;;;;;;;5.15;3.83;;;10.90;80.90;;;;;;5051790;28;20203;-77
2023/04/09 07:20:23;;;;;;;3.60;3.30;;;10.90;80.50;;;;;;5052995;28;20190;-74
2023/04/09 07:22:49;;;;;;;4.07;3.78;;;11.00;80.50;;;;;;5052115;28;20633;-74
2023/04/09 07:25:15;;;;;;;4.25;3.38;;;11.00;79.80;;;;;;5052334;28;20183;-75
2023/04/09 07:27:42;;;;;;;3.75;3.45;;;11.00;80.10;;;;;;5047239;28;20206;-74
2023/04/09 07:30:09;;;;;;;4.05;3.50;;;11.00;80.00;;;;;;5055223;28;20187;-79
2023/04/09 07:32:35;;;;;;;5.43;3.35;;;10.90;79.20;;;;;;5057250;28;20179;-76
2023/04/09 07:35:03;;;;;;;2.83;2.63;;;10.90;79.20;;;;;;5057118;28;20607;-74
2023/04/09 07:37:30;;;;;;;3.08;2.70;;;10.90;78.90;;;;;;5048970;28;20184;-74
2023/04/09 07:39:55;;;;;;;2.47;2.28;;;10.90;79.00;;;;;;5048759;28;20211;-75
2023/04/09 07:42:21;;;;;;;4.32;2.78;;;11.10;78.50;;;;;;5050662;28;20214;-74
2023/04/09 07:44:47;;;;;;;2.80;2.60;;;11.20;77.60;;;;;;5048992;28;20194;-74
2023/04/09 07:47:13;;;;;;;3.05;2.85;;;11.20;77.70;;;;;;5054643;28;20199;-79
2023/04/09 07:49:38;;;;;;;3.17;2.97;;;11.20;77.70;;;;;;5054762;28;20182;-75
2023/04/09 07:52:05;;;;;;;3.00;2.80;;;11.30;77.80;;;;;;5053518;28;20230;-73
2023/04/09 07:54:31;;;;;;;3.03;2.78;;;11.50;77.80;;;;;;5054382;28;20572;-74
2023/04/09 07:56:57;;;;;;;2.90;2.80;;;11.70;76.90;;;;;;5051107;28;20291;-75
2023/04/09 07:59:23;;;;;;;3.72;3.40;;;11.80;76.50;;;;;;5054452;28;20183;-74
2023/04/09 08:01:49;;;;;;;3.65;3.35;;;12.00;75.80;;;;;;5049202;28;20194;-73
2023/04/09 08:04:15;;;;;;;3.40;3.17;;;12.20;75.30;;;;;;5048690;28;20629;-72
2023/04/09 08:06:41;;;;;;;3.20;3.00;;;12.30;75.00;;;;;;5052822;28;20187;-73
2023/04/09 08:09:06;;;;;;;2.88;2.72;;;12.30;74.80;;;;;;5048350;28;20667;-72
2023/04/09 08:11:32;;;;;;;3.35;3.05;;;12.00;73.20;;;;;;5047471;28;21704;-72
2023/04/09 08:14:01;;;;;;;3.35;3.15;;;11.90;74.30;;;;;;5051083;28;20265;-72
2023/04/09 08:16:29;;;;;;;2.70;2.50;;;11.80;74.90;;;;;;5048978;28;20631;-78
2023/04/09 08:18:55;;;;;;;3.60;3.30;;;11.80;75.20;;;;;;5050405;28;20180;-75
2023/04/09 08:21:22;;;;;;;4.55;2.85;;;11.70;75.10;;;;;;5052528;28;20211;-77
2023/04/09 08:23:47;;;;;;;2.70;2.55;;;11.60;75.50;;;;;;5052008;28;20185;-75
2023/04/09 08:26:13;;;;;;;3.30;2.58;;;11.50;76.00;;;;;;5045717;28;20175;-77
2023/04/09 08:28:39;;;;;;;2.65;2.45;;;11.30;75.10;;;;;;5056546;28;20267;-75
2023/04/09 08:31:05;;;;;;;2.95;2.80;;;11.20;76.70;;;;;;5046781;28;20710;-74
2023/04/09 08:33:30;;;;;;;3.50;3.20;;;11.30;76.40;;;;;;5048757;28;20293;-75
2023/04/09 08:35:56;;;;;;;3.22;3.03;;;11.30;77.20;;;;;;5046622;28;20183;-78
2023/04/09 08:38:21;;;;;;;3.88;3.30;;;11.50;76.70;;;;;;5050433;28;20262;-77
2023/04/09 08:40:47;;;;;;;3.65;3.35;;;11.60;76.40;;;;;;5046931;28;20215;-76
2023/04/09 08:43:17;;;;;;;3.92;3.38;;;11.80;75.80;;;;;;5049498;28;20705;-76
2023/04/09 08:45:43;;;;;;;3.40;3.10;;;11.80;75.20;;;;;;5047171;28;20184;-76
2023/04/09 08:48:11;;;;;;;3.35;3.08;;;11.90;76.50;;;;;;5048115;28;21467;-76
2023/04/09 08:50:37;;;;;;;3.78;3.42;;;12.00;76.50;;;;;;5044654;28;20327;-77
2023/04/09 08:53:05;;;;;;;3.80;3.45;;;12.00;75.60;;;;;;5045341;28;20263;-76
2023/04/09 08:55:33;;;;;;;3.42;3.13;;;12.00;74.90;;;;;;5049503;28;20770;-76
2023/04/09 08:57:59;;;;;;;4.13;3.38;;;12.00;75.80;;;;;;5051500;28;20176;-75
2023/04/09 09:00:26;;;;;;;5.68;3.60;;;12.30;76.50;;;;;;5048237;28;20187;-78
2023/04/09 09:03:09;;;;;;;3.67;3.30;;;12.50;74.00;;;;;;5053654;28;20183;-76
2023/04/09 09:05:35;;;;;;;4.40;3.78;;;12.70;73.30;;;;;;5048604;28;20174;-77
2023/04/09 09:08:01;;;;;;;3.53;3.22;;;12.70;72.90;;;;;;5046772;28;20188;-77
2023/04/09 09:10:45;;;;;;;4.00;3.28;;;12.70;72.90;;;;;;5047717;28;20237;-75
2023/04/09 09:13:27;;;;;;;4.03;3.67;;;12.70;73.30;;;;;;5052080;28;20182;-75
2023/04/09 09:16:13;;;;;;;3.30;3.10;;;12.60;73.50;;;;;;5084199;28;20191;-75
2023/04/09 09:18:43;;;;;;;3.60;3.30;;;12.70;73.30;;;;;;5051248;28;20718;-74
2023/04/09 09:21:18;;;;;;;3.63;3.42;;;12.70;73.20;;;;;;5054040;28;20570;-75
2023/04/09 09:23:44;;;;;;;3.15;2.90;;;13.10;72.90;;;;;;5052059;28;20565;-73
2023/04/09 09:26:30;;;;;;;4.60;3.72;;;13.40;71.70;;;;;;5047001;28;20209;-74
2023/04/09 09:28:57;;;;;;;3.50;3.15;;;13.80;71.40;;;;;;5046567;28;20225;-74
2023/04/09 09:31:24;;;;;;;3.65;3.33;;;14.30;70.10;;;;;;5052213;28;20194;-73
2023/04/09 09:33:50;;;;;;;3.83;3.50;;;14.70;68.40;;;;;;5051907;28;20179;-73
2023/04/09 09:36:33;;;;;;;5.35;3.83;;;14.30;68.40;;;;;;5049055;28;20645;-73
2023/04/09 09:39:08;;;;;;;3.25;3.00;;;13.80;69.80;;;;;;5049104;28;20796;-73
2023/04/09 09:41:34;;;;;;;4.10;3.13;;;13.70;69.90;;;;;;5048320;28;20175;-73
2023/04/09 09:44:00;;;;;;;3.97;3.63;;;13.50;70.70;;;;;;5041896;28;20240;-74
2023/04/09 09:46:27;;;;;;;3.70;3.40;;;13.50;71.30;;;;;;5053182;28;20179;-74
2023/04/09 09:48:53;;;;;;;3.53;3.22;;;13.90;71.50;;;;;;5051979;28;20214;-74
2023/04/09 09:51:21;;;;;;;4.07;3.70;;;14.50;68.90;;;;;;5047452;28;20226;-74
2023/04/09 09:53:50;;;;;;;4.00;3.70;;;15.00;67.90;;;;;;5048264;28;20893;-74
2023/04/09 09:56:23;;;;;;;3.38;3.13;;;15.90;67.50;;;;;;5046425;28;20179;-74
2023/04/09 09:59:00;;;;;;;3.85;3.55;;;16.60;66.90;;;;;;5057779;28;20175;-77
2023/04/09 10:01:27;;;;;;;4.20;3.90;;;17.50;64.20;;;;;;5055838;28;20612;-77
2023/04/09 10:03:55;;;;;;;3.78;3.47;;;18.00;61.80;;;;;;5055521;28;20703;-79
2023/04/09 10:06:21;;;;;;;3.72;3.55;;;18.10;61.60;;;;;;5054391;28;20179;-79
2023/04/09 10:08:49;;;;;;;3.75;3.50;;;18.10;61.40;;;;;;5052725;28;20183;-78
2023/04/09 10:11:16;;;;;;;3.95;3.70;;;18.10;60.40;;;;;;5052715;28;20218;-78
2023/04/09 10:13:48;;;;;;;3.70;3.40;;;17.30;60.40;;;;;;5056434;28;20175;-77
2023/04/09 10:16:15;;;;;;;3.15;2.95;;;17.10;61.20;;;;;;5051446;28;20191;-77
2023/04/09 10:18:42;;;;;;;3.53;3.33;;;16.80;61.10;;;;;;5052322;28;20633;-77
2023/04/09 10:21:26;;;;;;;3.30;3.10;;;16.80;61.40;;;;;;5061245;28;20575;-75
2023/04/09 10:23:53;;;;;;;3.80;3.50;;;16.50;61.60;;;;;;5055795;28;20262;-77
2023/04/09 10:26:19;;;;;;;2.85;2.75;;;16.80;62.40;;;;;;5048295;28;20639;-78
2023/04/09 10:28:45;;;;;;;3.58;3.28;;;17.10;61.10;;;;;;5052776;28;20208;-80
2023/04/09 10:31:10;;;;;;;5.15;3.63;;;17.70;60.80;;;;;;5056986;28;20211;-83
2023/04/09 10:33:37;;;;;;;3.63;3.35;;;18.20;60.30;;;;;;5059172;28;20179;-81
2023/04/09 10:36:11;;;;;;;3.22;3.08;;;18.90;59.70;;;;;;5056982;28;20183;-81
2023/04/09 10:38:39;;;;;;;2.72;2.63;;;19.20;56.80;;;;;;5054663;28;20175;-77
2023/04/09 10:41:21;;;;;;;3.60;3.40;;;18.30;57.50;;;;;;5052208;28;20286;-72
2023/04/09 10:43:47;;;;;;;3.08;2.88;;;17.80;59.40;;;;;;5049476;28;20191;-72
2023/04/09 10:46:33;;;;;;;3.08;2.97;;;18.10;60.20;;;;;;5053163;28;20187;-72
2023/04/09 10:49:19;;;;;;;3.22;3.03;;;18.10;58.70;;;;;;5046280;28;20195;-75
2023/04/09 10:51:54;;;;;;;3.22;3.03;;;18.10;59.70;;;;;;5055961;28;20757;-72
2023/04/09 10:54:32;;;;;;;3.13;2.92;;;18.20;60.60;;;;;;5054075;28;20186;-72
2023/04/09 10:57:07;;;;;;;3.03;2.92;;;18.60;59.20;;;;;;5050435;28;20233;-72
2023/04/09 10:59:41;;;;;;;3.50;3.30;;;18.50;58.80;;;;;;5045963;28;20188;-76
2023/04/09 11:02:35;;;;;;;3.45;3.25;;;18.50;59.60;;;;;;5053088;28;20211;-76
2023/04/09 11:05:26;;;;;;;3.08;2.97;;;18.40;59.40;;;;;;5056725;28;20185;-74
2023/04/09 11:08:09;;;;;;;3.53;3.33;;;18.10;59.80;;;;;;5052096;28;20183;-74
2023/04/09 11:10:46;;;;;;;3.70;3.50;;;17.90;60.60;;;;;;5052430;28;20260;-75
2023/04/09 11:13:17;;;;;;;3.50;3.28;;;17.80;60.00;;;;;;5050748;28;20241;-73
2023/04/09 11:15:44;;;;;;;3.08;2.88;;;17.50;60.50;;;;;;5054572;28;20188;-73
2023/04/09 11:18:14;;;;;;;3.60;3.30;;;17.10;60.40;;;;;;5053593;28;20175;-78
2023/04/09 11:20:40;;;;;;;3.42;3.22;;;17.10;61.50;;;;;;5052024;28;20708;-73
2023/04/09 11:23:06;;;;;;;3.28;3.08;;;16.80;60.90;;;;;;5051989;28;20203;-70
2023/04/09 11:25:33;;;;;;;3.10;2.90;;;16.30;61.70;;;;;;5053177;28;20179;-73
2023/04/09 11:28:02;;;;;;;3.38;3.17;;;15.40;62.70;;;;;;5048666;28;20173;-72
2023/04/09 11:30:28;;;;;;;3.17;2.95;;;15.20;64.70;;;;;;5055838;28;20667;-75
2023/04/09 11:32:54;;;;;;;3.00;2.72;;;14.90;65.00;;;;;;5052333;28;20183;-73
2023/04/09 11:35:21;;;;;;;2.90;2.80;;;14.70;65.30;;;;;;5053246;28;20202;-72
2023/04/09 11:37:48;;;;;;;2.83;2.72;;;14.60;66.80;;;;;;5052734;28;20177;-77
2023/04/09 11:40:23;;;;;;;2.70;2.60;;;14.50;65.70;;;;;;5056016;28;20183;-76
2023/04/09 11:42:53;;;;;;;3.35;2.60;;;14.20;67.50;;;;;;5049935;28;20244;-75
2023/04/09 11:45:23;;;;;;;2.67;2.58;;;14.00;67.40;;;;;;5055178;28;20186;-75
2023/04/09 11:47:50;;;;;;;2.28;2.17;;;14.00;67.70;;;;;;5055555;28;20188;-74
2023/04/09 11:50:16;;;;;;;3.25;2.97;;;14.00;66.90;;;;;;5053056;28;20184;-73
2023/04/09 11:52:44;;;;;;;2.22;2.13;;;14.10;67.80;;;;;;5054544;28;20183;-73
2023/04/09 11:55:10;;;;;;;2.20;2.20;;;14.10;66.30;;;;;;5049903;28;20180;-76
2023/04/09 11:57:44;;;;;;;2.75;2.55;;;13.90;66.50;;;;;;5051206;28;20236;-74
2023/04/09 12:00:15;;;;;;;2.63;2.47;;;13.70;65.30;;;;;;5053944;28;20179;-76
2023/04/09 12:02:46;;;;;;;2.22;2.10;;;13.50;66.00;;;;;;5052942;28;20240;-74
2023/04/09 12:05:19;;;;;;;2.45;2.35;;;13.30;66.10;;;;;;5049731;28;20226;-75
2023/04/09 12:07:45;;;;;;;3.63;2.60;;;13.30;66.40;;;;;;5051623;28;20763;-77
2023/04/09 12:10:11;;;;;;;2.50;2.40;;;13.20;66.80;;;;;;5050849;28;20180;-77
2023/04/09 12:12:41;;;;;;;2.83;2.63;;;13.30;67.30;;;;;;5050376;28;20302;-76
2023/04/09 12:15:26;;;;;;;2.90;2.70;;;13.30;67.10;;;;;;5052742;28;20214;-77
2023/04/09 12:17:56;;;;;;;2.47;2.28;;;13.30;67.20;;;;;;5044223;28;20182;-77
2023/04/09 12:20:32;;;;;;;2.55;2.35;;;13.30;68.20;;;;;;5054386;28;20274;-76
2023/04/09 12:22:59;;;;;;;2.70;2.55;;;13.30;69.20;;;;;;5058790;28;20182;-77
2023/04/09 12:25:25;;;;;;;3.00;2.80;;;13.20;69.50;;;;;;5057336;28;20175;-76
2023/04/09 12:27:51;;;;;;;2.83;2.67;;;13.30;70.00;;;;;;5056068;28;20696;-76
2023/04/09 12:30:17;;;;;;;2.30;2.20;;;13.40;69.80;;;;;;5058538;28;20264;-77
2023/04/09 12:32:44;;;;;;;2.53;2.42;;;13.60;69.10;;;;;;5052646;28;20187;-77
2023/04/09 12:35:10;;;;;;;2.10;2.00;;;13.90;67.60;;;;;;5052406;28;20190;-76
2023/04/09 12:37:36;;;;;;;2.55;2.35;;;14.20;66.50;;;;;;5046659;28;20192;-76
2023/04/09 12:40:02;;;;;;;2.40;2.28;;;14.60;66.10;;;;;;5049652;28;20174;-76
2023/04/09 12:42:28;;;;;;;3.00;2.80;;;14.70;64.40;;;;;;5048050;28;20194;-77
2023/04/09 12:44:53;;;;;;;2.22;2.13;;;14.70;64.40;;;;;;5051252;28;20191;-77
2023/04/09 12:47:19;;;;;;;2.63;2.53;;;14.60;64.70;;;;;;5052733;28;20280;-76
2023/04/09 12:49:45;;;;;;;2.72;2.63;;;14.30;64.80;;;;;;5051660;28;20216;-77
2023/04/09 12:52:11;;;;;;;3.10;2.90;;;14.40;64.90;;;;;;5084253;28;20307;-76
2023/04/09 12:54:38;;;;;;;2.35;2.35;;;14.40;65.30;;;;;;5050478;28;20207;-76
2023/04/09 12:57:05;;;;;;;2.33;2.22;;;14.40;64.90;;;;;;5048193;28;20678;-77